Time;durP1;ratioP1;P1;durP2;ratioP2;P2;SDS_P1;SDS_P2;PMS_P1;PMS_P2;Temp;Humidity;BMP_temperature;BMP_pressure;BME280_temperature;BME280_humidity;BME280_pressure;Samples;Min_cycle;Max_cycle;Signal;HPM_P1;HPM_P2
2024/01/15 00:00:58;;;;;;;4.00;1.40;;;3.70;99.90;;;;;;5007149;28;20053;-64
2024/01/15 00:03:25;;;;;;;3.97;2.00;;;3.60;99.90;;;;;;5001280;28;20046;-63
2024/01/15 00:05:51;;;;;;;2.85;1.33;;;3.50;99.90;;;;;;5004435;28;20401;-64
2024/01/15 00:08:18;;;;;;;3.65;1.73;;;3.50;99.90;;;;;;5005004;28;20046;-63
2024/01/15 00:10:45;;;;;;;4.22;1.48;;;3.40;99.90;;;;;;5000438;28;20042;-63
2024/01/15 00:13:12;;;;;;;7.18;2.20;;;3.30;99.90;;;;;;5011641;28;20493;-63
2024/01/15 00:15:39;;;;;;;4.45;1.55;;;3.30;99.90;;;;;;5005269;28;20046;-63
2024/01/15 00:18:06;;;;;;;4.82;1.98;;;3.20;99.90;;;;;;5004315;28;20327;-63
2024/01/15 00:20:34;;;;;;;7.15;2.10;;;3.20;99.90;;;;;;5008142;28;20140;-63
2024/01/15 00:23:01;;;;;;;5.28;2.10;;;3.10;99.90;;;;;;5001972;28;20050;-63
2024/01/15 00:25:28;;;;;;;3.40;1.90;;;3.10;99.90;;;;;;5002737;28;20108;-63
2024/01/15 00:27:55;;;;;;;3.40;1.70;;;3.00;99.90;;;;;;4997917;28;20508;-62
2024/01/15 00:30:21;;;;;;;1.92;1.38;;;2.90;99.90;;;;;;5013813;28;20550;-63
2024/01/15 00:32:49;;;;;;;1.77;1.25;;;2.80;99.90;;;;;;5010472;28;20060;-63
2024/01/15 00:35:16;;;;;;;3.72;1.77;;;2.80;99.90;;;;;;5011060;28;20077;-63
2024/01/15 00:37:43;;;;;;;3.15;1.50;;;2.80;99.90;;;;;;5005040;28;20571;-63
2024/01/15 00:40:10;;;;;;;6.15;1.67;;;2.70;99.90;;;;;;5015156;28;20111;-63
2024/01/15 00:42:37;;;;;;;5.15;1.67;;;2.70;99.90;;;;;;5002845;28;20046;-64
2024/01/15 00:45:05;;;;;;;2.75;1.38;;;2.60;99.90;;;;;;5009383;28;20042;-64
2024/01/15 00:47:32;;;;;;;3.40;1.35;;;2.50;99.90;;;;;;5005187;28;20133;-63
2024/01/15 00:49:59;;;;;;;2.85;1.30;;;2.50;99.90;;;;;;4996306;28;20398;-63
2024/01/15 00:52:25;;;;;;;4.47;1.30;;;2.50;99.90;;;;;;5000750;28;20108;-63
2024/01/15 00:54:52;;;;;;;4.68;1.40;;;2.50;99.90;;;;;;5008520;28;20046;-64
2024/01/15 00:57:19;;;;;;;2.28;1.20;;;2.50;99.90;;;;;;5008150;28;20484;-63
2024/01/15 00:59:47;;;;;;;4.95;1.58;;;2.40;99.90;;;;;;4999351;28;20100;-64
2024/01/15 01:02:14;;;;;;;3.17;1.60;;;2.40;99.90;;;;;;5019419;28;20050;-64
2024/01/15 01:04:40;;;;;;;1.45;1.17;;;2.40;99.90;;;;;;5008107;28;20046;-63
2024/01/15 01:07:07;;;;;;;4.05;1.40;;;2.40;99.90;;;;;;5007150;28;21265;-64
2024/01/15 01:09:34;;;;;;;1.88;1.15;;;2.40;99.90;;;;;;5004681;28;20143;-64
2024/01/15 01:12:01;;;;;;;2.42;0.90;;;2.40;99.90;;;;;;5017638;28;20117;-64
2024/01/15 01:14:27;;;;;;;2.38;1.30;;;2.30;99.90;;;;;;5001141;28;20078;-63
2024/01/15 01:16:54;;;;;;;1.98;0.80;;;2.20;99.90;;;;;;4995343;28;20100;-63
2024/01/15 01:19:21;;;;;;;3.28;1.45;;;2.20;99.90;;;;;;4995383;28;20186;-64
2024/01/15 01:21:50;;;;;;;3.72;1.15;;;2.20;99.90;;;;;;5010194;28;20302;-63
2024/01/15 01:24:17;;;;;;;2.85;1.33;;;2.20;99.90;;;;;;5006088;28;20065;-63
2024/01/15 01:26:45;;;;;;;2.50;1.50;;;2.00;99.90;;;;;;5012945;28;20060;-63
2024/01/15 01:29:12;;;;;;;2.33;1.40;;;2.00;99.90;;;;;;5001389;28;20109;-63
2024/01/15 01:31:44;;;;;;;3.50;1.42;;;2.00;99.90;;;;;;5012782;28;20056;-64
2024/01/15 01:34:14;;;;;;;2.05;1.40;;;1.90;99.90;;;;;;5005440;28;20049;-63
2024/01/15 01:36:42;;;;;;;3.42;1.80;;;1.80;99.90;;;;;;5033264;28;20065;-63
2024/01/15 01:39:09;;;;;;;6.20;1.55;;;1.80;99.90;;;;;;5002506;28;20046;-64
2024/01/15 01:41:36;;;;;;;4.78;1.75;;;1.80;99.90;;;;;;5005969;28;20064;-64
2024/01/15 01:44:02;;;;;;;2.60;1.35;;;1.90;99.90;;;;;;5012075;28;20046;-63
2024/01/15 01:46:29;;;;;;;7.13;1.70;;;1.80;99.90;;;;;;5011200;28;20092;-64
2024/01/15 01:48:56;;;;;;;2.15;1.60;;;1.80;99.90;;;;;;5001904;28;20045;-64
2024/01/15 01:51:23;;;;;;;10.07;1.63;;;1.80;99.90;;;;;;5002064;28;20156;-64
2024/01/15 01:53:50;;;;;;;3.75;1.60;;;1.70;99.90;;;;;;5012973;28;20057;-64
2024/01/15 01:56:17;;;;;;;3.00;1.63;;;1.70;99.90;;;;;;5012785;28;20049;-64
2024/01/15 01:58:44;;;;;;;3.47;2.13;;;1.70;99.90;;;;;;5003385;28;20100;-63
2024/01/15 02:01:12;;;;;;;6.03;1.83;;;1.60;99.90;;;;;;5005440;28;20084;-64
2024/01/15 02:03:40;;;;;;;2.60;1.30;;;1.70;99.90;;;;;;4990027;28;20499;-63
2024/01/15 02:06:07;;;;;;;6.15;2.03;;;1.60;99.90;;;;;;5019255;28;20050;-63
2024/01/15 02:08:34;;;;;;;2.88;1.77;;;1.70;99.90;;;;;;5005558;28;20068;-64
2024/01/15 02:11:01;;;;;;;4.18;1.48;;;1.50;99.90;;;;;;5011048;28;20053;-63
2024/01/15 02:13:28;;;;;;;4.15;1.40;;;1.50;99.90;;;;;;4999971;28;20053;-64
2024/01/15 02:15:55;;;;;;;5.03;1.83;;;1.40;99.90;;;;;;4995857;28;20093;-64
2024/01/15 02:18:22;;;;;;;1.63;1.20;;;1.30;99.90;;;;;;5005711;28;20096;-64
2024/01/15 02:20:49;;;;;;;4.88;1.70;;;1.30;99.90;;;;;;5000690;28;20050;-64
2024/01/15 02:23:15;;;;;;;4.35;1.80;;;1.20;99.90;;;;;;5008264;28;20041;-64
2024/01/15 02:25:44;;;;;;;3.00;1.63;;;1.10;99.90;;;;;;5003517;28;20698;-64
2024/01/15 02:28:13;;;;;;;7.57;2.00;;;1.10;99.90;;;;;;5000114;28;20046;-64
2024/01/15 02:30:41;;;;;;;3.05;1.45;;;1.00;99.90;;;;;;4999757;28;20124;-64
2024/01/15 02:33:08;;;;;;;4.25;2.05;;;1.10;99.90;;;;;;5000752;28;20052;-64
2024/01/15 02:35:37;;;;;;;5.32;1.77;;;1.00;99.90;;;;;;4998874;28;20050;-64
2024/01/15 02:38:05;;;;;;;2.97;1.83;;;1.00;99.90;;;;;;5006311;28;20057;-64
2024/01/15 02:40:32;;;;;;;3.88;1.73;;;1.00;99.90;;;;;;5005224;28;20054;-63
2024/01/15 02:42:59;;;;;;;7.47;2.03;;;1.00;99.90;;;;;;5008521;28;20046;-63
2024/01/15 02:45:26;;;;;;;3.45;1.75;;;0.90;99.90;;;;;;5004969;28;20104;-64
2024/01/15 02:47:52;;;;;;;3.28;1.80;;;0.90;99.90;;;;;;5005880;28;20046;-64
2024/01/15 02:50:19;;;;;;;5.10;2.25;;;0.90;99.90;;;;;;4996516;28;21033;-63
2024/01/15 02:52:46;;;;;;;4.15;2.33;;;0.90;99.90;;;;;;5000143;28;20567;-62
2024/01/15 02:55:13;;;;;;;3.05;1.98;;;0.80;99.90;;;;;;5011435;28;20518;-62
2024/01/15 02:57:39;;;;;;;3.55;1.90;;;0.80;99.90;;;;;;4997987;28;20113;-62
2024/01/15 03:00:07;;;;;;;2.80;2.00;;;0.80;99.90;;;;;;5007968;28;20141;-63
2024/01/15 03:02:39;;;;;;;5.13;2.45;;;0.80;99.90;;;;;;5003309;28;20516;-63
2024/01/15 03:05:09;;;;;;;3.53;1.83;;;0.70;99.90;;;;;;5009659;28;20493;-63
2024/01/15 03:07:36;;;;;;;5.22;2.20;;;0.70;99.90;;;;;;4997584;28;20042;-63
2024/01/15 03:10:04;;;;;;;4.13;2.30;;;0.70;99.90;;;;;;5004476;28;20054;-65
2024/01/15 03:12:31;;;;;;;3.00;2.03;;;0.70;99.90;;;;;;5004843;28;20045;-63
2024/01/15 03:14:58;;;;;;;6.40;2.25;;;0.60;99.90;;;;;;5004505;28;20652;-63
2024/01/15 03:17:25;;;;;;;4.15;2.00;;;0.70;99.90;;;;;;5013285;28;20073;-64
2024/01/15 03:19:52;;;;;;;7.30;3.00;;;0.60;99.90;;;;;;5005665;28;20109;-64
2024/01/15 03:22:19;;;;;;;2.75;1.85;;;0.60;99.90;;;;;;5002515;28;20497;-63
2024/01/15 03:24:45;;;;;;;4.32;2.50;;;0.60;99.90;;;;;;5013181;28;20112;-64
2024/01/15 03:27:12;;;;;;;6.75;2.35;;;0.60;99.90;;;;;;5015275;28;20076;-63
2024/01/15 03:29:40;;;;;;;4.93;2.22;;;0.60;99.90;;;;;;5004590;28;20208;-62
2024/01/15 03:32:07;;;;;;;2.55;1.85;;;0.60;99.90;;;;;;5007056;28;20041;-64
2024/01/15 03:34:34;;;;;;;5.38;2.28;;;0.60;99.90;;;;;;5000972;28;20046;-63
2024/01/15 03:37:01;;;;;;;4.68;1.85;;;0.70;99.90;;;;;;5010670;28;20050;-64
2024/01/15 03:39:27;;;;;;;4.97;2.15;;;0.60;99.90;;;;;;5005733;28;20068;-63
2024/01/15 03:41:55;;;;;;;1.88;1.60;;;0.60;99.90;;;;;;5003599;28;20449;-64
2024/01/15 03:44:22;;;;;;;4.47;2.60;;;0.50;99.90;;;;;;5005100;28;20050;-63
2024/01/15 03:46:49;;;;;;;3.92;2.40;;;0.50;99.90;;;;;;5006802;28;20331;-63
2024/01/15 03:49:15;;;;;;;4.78;2.17;;;0.50;99.90;;;;;;5003163;28;20085;-64
2024/01/15 03:51:43;;;;;;;4.10;2.10;;;0.50;99.90;;;;;;5005328;28;20057;-63
2024/01/15 03:54:09;;;;;;;5.75;2.65;;;0.50;99.90;;;;;;5005456;28;20046;-63
2024/01/15 03:56:36;;;;;;;7.53;2.65;;;0.60;99.90;;;;;;5010265;28;20054;-63
2024/01/15 03:59:03;;;;;;;4.07;2.58;;;0.60;99.90;;;;;;5004767;28;20496;-63
2024/01/15 04:01:30;;;;;;;2.92;1.77;;;0.50;99.90;;;;;;5006968;28;20052;-62
2024/01/15 04:03:57;;;;;;;5.93;2.10;;;0.50;99.90;;;;;;5005933;28;20054;-63
2024/01/15 04:06:24;;;;;;;6.80;3.17;;;0.50;99.90;;;;;;5005104;28;20046;-63
2024/01/15 04:08:51;;;;;;;5.15;1.90;;;0.50;99.90;;;;;;4999641;28;20124;-63
2024/01/15 04:11:18;;;;;;;4.75;2.40;;;0.40;99.90;;;;;;5008390;28;20042;-63
2024/01/15 04:13:45;;;;;;;9.23;2.40;;;0.40;99.90;;;;;;5002490;28;20178;-63
2024/01/15 04:16:12;;;;;;;4.10;2.00;;;0.30;99.90;;;;;;5004613;28;20644;-63
2024/01/15 04:18:38;;;;;;;4.32;2.60;;;0.30;99.90;;;;;;5003871;28;20050;-63
2024/01/15 04:21:06;;;;;;;5.30;2.10;;;0.30;99.90;;;;;;5003353;28;20198;-63
2024/01/15 04:23:33;;;;;;;4.47;2.10;;;0.30;99.90;;;;;;5009321;28;20509;-63
2024/01/15 04:26:00;;;;;;;6.13;2.70;;;0.30;99.90;;;;;;5002937;28;20050;-63
2024/01/15 04:28:26;;;;;;;4.20;2.20;;;0.20;99.90;;;;;;5009667;28;20096;-63
2024/01/15 04:30:53;;;;;;;6.55;1.98;;;0.20;99.90;;;;;;5002322;28;20066;-63
2024/01/15 04:33:20;;;;;;;4.72;2.38;;;0.20;99.90;;;;;;5011427;28;20050;-64
2024/01/15 04:35:47;;;;;;;3.20;2.22;;;0.20;99.90;;;;;;5006841;28;20104;-63
2024/01/15 04:38:14;;;;;;;3.15;1.92;;;0.20;99.90;;;;;;5006815;28;20720;-63
2024/01/15 04:40:41;;;;;;;4.10;2.30;;;0.20;99.90;;;;;;5002513;28;20141;-63
2024/01/15 04:43:08;;;;;;;4.75;2.60;;;0.10;99.90;;;;;;5008751;28;20088;-63
2024/01/15 04:45:34;;;;;;;4.28;2.47;;;0.10;99.90;;;;;;5008198;28;20069;-63
2024/01/15 04:48:02;;;;;;;3.50;2.20;;;0.10;99.90;;;;;;4992389;28;20142;-63
2024/01/15 04:50:28;;;;;;;6.28;2.05;;;0.10;99.90;;;;;;5003017;28;20046;-63
2024/01/15 04:52:55;;;;;;;5.40;2.33;;;0.10;99.90;;;;;;5006899;28;20100;-63
2024/01/15 04:55:22;;;;;;;7.35;2.70;;;0.00;99.90;;;;;;4998626;28;20056;-63
2024/01/15 04:57:49;;;;;;;4.30;2.38;;;0.10;99.90;;;;;;4999097;28;20046;-64
2024/01/15 05:00:16;;;;;;;4.57;2.97;;;-0.10;99.90;;;;;;5005540;28;20470;-63
2024/01/15 05:02:43;;;;;;;5.55;2.70;;;-0.10;99.90;;;;;;5002228;28;20053;-63
2024/01/15 05:05:09;;;;;;;8.45;2.67;;;-0.10;99.90;;;;;;5012071;28;20045;-62
2024/01/15 05:07:36;;;;;;;5.07;2.50;;;-0.10;99.90;;;;;;5012511;28;20239;-63
2024/01/15 05:10:04;;;;;;;4.75;2.33;;;-0.10;99.90;;;;;;5006029;28;20516;-63
2024/01/15 05:12:30;;;;;;;4.03;1.80;;;-0.10;99.90;;;;;;4999910;28;20053;-63
2024/01/15 05:14:57;;;;;;;10.65;2.45;;;-0.10;99.90;;;;;;5003840;28;20446;-64
2024/01/15 05:17:24;;;;;;;3.10;1.67;;;-0.10;99.90;;;;;;4999355;28;20042;-65
2024/01/15 05:19:51;;;;;;;5.72;2.30;;;-0.10;99.90;;;;;;5004643;28;20052;-64
2024/01/15 05:22:19;;;;;;;3.70;1.90;;;-0.10;99.90;;;;;;5006348;28;20137;-63
2024/01/15 05:24:46;;;;;;;3.83;1.83;;;-0.10;99.90;;;;;;5009318;28;20050;-63
2024/01/15 05:27:13;;;;;;;5.78;1.98;;;-0.10;99.90;;;;;;5006598;28;20046;-63
2024/01/15 05:29:39;;;;;;;2.53;1.77;;;-0.10;99.90;;;;;;5009372;28;20052;-63
2024/01/15 05:32:06;;;;;;;5.25;3.08;;;0.00;99.90;;;;;;5003197;28;20073;-63
2024/01/15 05:34:33;;;;;;;5.00;1.98;;;-0.10;99.90;;;;;;5004887;28;20046;-63
2024/01/15 05:37:00;;;;;;;3.80;2.10;;;-0.10;99.90;;;;;;5007168;28;20385;-63
2024/01/15 05:39:27;;;;;;;5.60;2.35;;;0.00;99.90;;;;;;5004800;28;20042;-63
2024/01/15 05:41:54;;;;;;;2.60;1.85;;;-0.10;99.90;;;;;;5002536;28;20137;-63
2024/01/15 05:44:21;;;;;;;6.47;1.75;;;-0.10;99.90;;;;;;5005309;28;20049;-63
2024/01/15 05:46:47;;;;;;;3.47;1.63;;;-0.10;99.90;;;;;;5006650;28;20523;-63
2024/01/15 05:49:14;;;;;;;4.65;2.35;;;0.00;99.90;;;;;;5006534;28;20042;-63
2024/01/15 05:51:41;;;;;;;5.05;2.55;;;-0.10;99.90;;;;;;5002680;28;20132;-63
2024/01/15 05:54:08;;;;;;;3.67;1.55;;;-0.20;99.90;;;;;;5003489;28;20616;-63
2024/01/15 05:56:35;;;;;;;4.55;3.40;;;-0.20;99.90;;;;;;5002753;28;20053;-63
2024/01/15 05:59:02;;;;;;;4.35;2.50;;;-0.20;99.90;;;;;;4999762;28;20042;-63
2024/01/15 06:01:29;;;;;;;7.45;2.65;;;-0.20;99.90;;;;;;5002951;28;20041;-64
2024/01/15 06:03:56;;;;;;;9.70;2.50;;;-0.20;99.90;;;;;;5004193;28;20073;-63
2024/01/15 06:06:23;;;;;;;5.97;2.38;;;-0.30;99.90;;;;;;5011846;28;20417;-63
2024/01/15 06:08:50;;;;;;;3.90;2.03;;;-0.30;99.90;;;;;;5002874;28;20177;-63
2024/01/15 06:11:17;;;;;;;10.52;2.50;;;-0.30;99.90;;;;;;5002318;28;20046;-63
2024/01/15 06:13:44;;;;;;;4.13;2.10;;;-0.20;99.90;;;;;;5018691;28;20053;-64
2024/01/15 06:16:15;;;;;;;5.13;1.83;;;-0.40;99.90;;;;;;5007024;28;20092;-63
2024/01/15 06:18:42;;;;;;;5.95;2.80;;;-0.40;99.90;;;;;;5002457;28;20398;-63
2024/01/15 06:21:10;;;;;;;6.82;2.17;;;-0.40;99.90;;;;;;5000720;28;20555;-63
2024/01/15 06:23:37;;;;;;;5.25;2.30;;;-0.40;99.90;;;;;;5001847;28;20060;-63
2024/01/15 06:26:05;;;;;;;7.15;2.28;;;-0.40;99.90;;;;;;5007941;28;20054;-63
2024/01/15 06:28:32;;;;;;;7.43;2.65;;;-0.40;99.90;;;;;;4999689;28;20046;-63
2024/01/15 06:30:58;;;;;;;3.90;2.15;;;-0.50;99.90;;;;;;5012029;28;20429;-63
2024/01/15 06:33:25;;;;;;;3.95;2.20;;;-0.40;99.90;;;;;;5001876;28;20043;-63
2024/01/15 06:35:52;;;;;;;9.45;2.45;;;-0.50;99.90;;;;;;4993182;28;20329;-63
2024/01/15 06:38:19;;;;;;;6.78;2.30;;;-0.40;99.90;;;;;;4995332;28;20050;-65
2024/01/15 06:40:48;;;;;;;6.32;2.72;;;-0.50;99.90;;;;;;4999394;28;20065;-63
2024/01/15 06:43:19;;;;;;;4.20;2.42;;;-0.50;99.90;;;;;;5008143;28;20056;-63
2024/01/15 06:45:46;;;;;;;3.47;2.47;;;-0.50;99.90;;;;;;4999557;28;20053;-63
2024/01/15 06:48:16;;;;;;;5.57;2.45;;;-0.50;99.90;;;;;;4994028;28;20046;-64
2024/01/15 06:50:43;;;;;;;4.72;2.33;;;-0.50;99.90;;;;;;5001302;28;20053;-63
2024/01/15 06:53:10;;;;;;;4.88;2.60;;;-0.50;99.90;;;;;;5003723;28;20061;-63
2024/01/15 06:55:38;;;;;;;7.25;2.47;;;-0.50;99.90;;;;;;5003427;28;20049;-62
2024/01/15 06:58:05;;;;;;;5.05;2.22;;;-0.50;99.90;;;;;;5007557;28;20042;-63
2024/01/15 07:00:31;;;;;;;4.03;1.95;;;-0.50;99.90;;;;;;5008128;28;20081;-63
2024/01/15 07:02:59;;;;;;;7.45;2.53;;;-0.50;99.90;;;;;;5014576;28;20060;-64
2024/01/15 07:05:26;;;;;;;6.90;2.70;;;-0.50;99.90;;;;;;4657192;28;10000279;-64
2024/01/15 07:07:53;;;;;;;4.90;2.75;;;-0.60;99.90;;;;;;4996984;28;20053;-63
2024/01/15 07:10:19;;;;;;;5.30;2.60;;;-0.50;99.90;;;;;;5008601;28;20054;-63
2024/01/15 07:12:46;;;;;;;4.22;2.17;;;-0.60;99.90;;;;;;5003068;28;20104;-63
2024/01/15 07:15:14;;;;;;;3.60;1.90;;;-0.50;99.90;;;;;;5005702;28;20052;-63
2024/01/15 07:17:41;;;;;;;4.07;2.28;;;-0.50;99.90;;;;;;5007965;28;20082;-63
2024/01/15 07:20:08;;;;;;;6.18;2.65;;;-0.50;99.90;;;;;;5004459;28;20049;-63
2024/01/15 07:22:36;;;;;;;7.35;2.10;;;-0.60;99.90;;;;;;5007433;28;20046;-63
2024/01/15 07:25:04;;;;;;;5.95;2.50;;;-0.50;99.90;;;;;;5021454;28;20101;-62
2024/01/15 07:27:32;;;;;;;5.30;2.17;;;-0.50;99.90;;;;;;5004936;28;20049;-61
2024/01/15 07:29:59;;;;;;;6.57;2.83;;;-0.50;99.90;;;;;;5004360;28;20504;-63
2024/01/15 07:32:29;;;;;;;5.32;2.08;;;-0.70;99.90;;;;;;4999715;28;20444;-62
2024/01/15 07:34:56;;;;;;;4.55;1.92;;;-0.40;99.90;;;;;;5004667;28;20046;-63
2024/01/15 07:37:23;;;;;;;3.58;1.77;;;-0.50;99.90;;;;;;5005859;28;20064;-62
2024/01/15 07:39:50;;;;;;;4.50;2.25;;;-0.50;99.90;;;;;;5001665;28;20549;-68
2024/01/15 07:42:17;;;;;;;5.95;2.33;;;-0.50;99.90;;;;;;4990807;28;20099;-62
2024/01/15 07:44:44;;;;;;;6.90;2.60;;;-0.50;99.90;;;;;;5006055;28;20457;-61
2024/01/15 07:47:12;;;;;;;4.05;1.98;;;-0.50;99.90;;;;;;4998885;28;20050;-61
2024/01/15 07:49:39;;;;;;;3.13;2.22;;;-0.40;99.90;;;;;;5004742;28;20049;-62
2024/01/15 07:52:06;;;;;;;5.55;2.70;;;-0.40;99.90;;;;;;5001737;28;20057;-63
2024/01/15 07:54:33;;;;;;;7.70;1.60;;;-0.40;99.90;;;;;;5007434;28;20051;-64
2024/01/15 07:57:01;;;;;;;6.05;1.95;;;-0.40;99.90;;;;;;5002537;28;20080;-62
2024/01/15 07:59:27;;;;;;;2.13;1.35;;;-0.40;99.90;;;;;;5006846;28;20131;-62
2024/01/15 08:01:54;;;;;;;4.05;1.77;;;-0.40;99.90;;;;;;4999726;28;20515;-62
2024/01/15 08:04:24;;;;;;;4.30;2.92;;;-0.40;99.90;;;;;;5003114;28;20042;-62
2024/01/15 08:06:52;;;;;;;3.15;1.55;;;-0.30;99.90;;;;;;5013338;28;20141;-62
2024/01/15 08:09:19;;;;;;;2.00;1.33;;;-0.30;99.90;;;;;;5000396;28;20085;-62
2024/01/15 08:11:46;;;;;;;5.38;2.08;;;-0.20;99.90;;;;;;5008650;28;20045;-62
2024/01/15 08:14:13;;;;;;;4.40;1.90;;;-0.40;99.90;;;;;;5003654;28;20464;-63
2024/01/15 08:16:40;;;;;;;4.13;1.77;;;-0.50;99.90;;;;;;5005087;28;20050;-63
2024/01/15 08:19:07;;;;;;;4.97;2.22;;;-0.50;99.90;;;;;;5002342;28;20042;-62
2024/01/15 08:21:34;;;;;;;6.50;2.22;;;-0.50;99.90;;;;;;5001366;28;20046;-63
2024/01/15 08:24:02;;;;;;;3.38;2.22;;;-0.50;99.90;;;;;;5005581;28;20053;-62
2024/01/15 08:26:29;;;;;;;3.65;2.00;;;-0.60;99.90;;;;;;5002429;28;20050;-61
2024/01/15 08:28:56;;;;;;;4.32;2.13;;;-0.50;99.90;;;;;;5000216;28;20057;-61
2024/01/15 08:31:23;;;;;;;4.72;1.92;;;-0.50;99.90;;;;;;5007199;28;20053;-61
2024/01/15 08:33:50;;;;;;;4.75;2.10;;;-0.50;99.90;;;;;;5002965;28;20049;-62
2024/01/15 08:36:17;;;;;;;3.45;1.73;;;-0.50;99.90;;;;;;5016935;28;20050;-61
2024/01/15 08:38:44;;;;;;;8.68;2.38;;;-0.50;99.90;;;;;;4998109;28;20149;-61
2024/01/15 08:41:11;;;;;;;3.92;2.25;;;-0.40;99.90;;;;;;5002726;28;20116;-62
2024/01/15 08:43:38;;;;;;;8.27;1.95;;;-0.40;99.90;;;;;;4999364;28;20045;-61
2024/01/15 08:46:05;;;;;;;6.28;2.47;;;-0.40;99.90;;;;;;5002565;28;20049;-62
2024/01/15 08:48:32;;;;;;;8.32;2.75;;;-0.20;99.90;;;;;;5004791;28;20514;-62
2024/01/15 08:50:59;;;;;;;5.15;2.13;;;-0.30;99.90;;;;;;4988687;28;20054;-62
2024/01/15 08:53:27;;;;;;;8.48;2.40;;;-0.30;99.90;;;;;;4998712;28;20104;-61
2024/01/15 08:55:54;;;;;;;8.32;2.03;;;-0.30;99.90;;;;;;5003370;28;20081;-60
2024/01/15 08:58:21;;;;;;;7.20;1.95;;;-0.30;99.90;;;;;;5005337;28;20054;-62
2024/01/15 09:00:47;;;;;;;4.50;1.70;;;-0.20;99.90;;;;;;5015401;28;20108;-61
2024/01/15 09:03:14;;;;;;;5.75;2.45;;;-0.20;99.90;;;;;;4994630;28;20502;-61
2024/01/15 09:05:41;;;;;;;5.20;2.22;;;-0.30;99.90;;;;;;5004613;28;20050;-62
2024/01/15 09:08:09;;;;;;;2.83;1.52;;;-0.20;99.90;;;;;;5000843;28;20424;-62
2024/01/15 09:10:36;;;;;;;6.88;3.20;;;-0.20;99.90;;;;;;4998930;28;20046;-62
2024/01/15 09:13:04;;;;;;;7.13;2.25;;;-0.10;99.90;;;;;;5005545;28;20050;-62
2024/01/15 09:15:32;;;;;;;17.85;2.90;;;-0.20;99.90;;;;;;5001489;28;20041;-61
2024/01/15 09:17:59;;;;;;;4.35;2.10;;;-0.10;99.90;;;;;;4995879;28;20060;-61
2024/01/15 09:20:27;;;;;;;8.05;1.95;;;-0.10;99.90;;;;;;4999459;28;20064;-61
2024/01/15 09:22:54;;;;;;;5.10;1.80;;;0.00;99.90;;;;;;5004639;28;20072;-62
2024/01/15 09:25:21;;;;;;;10.95;2.33;;;0.10;99.90;;;;;;4995911;28;20050;-61
2024/01/15 09:27:48;;;;;;;5.07;2.10;;;0.10;99.90;;;;;;5010944;28;20053;-61
2024/01/15 09:30:15;;;;;;;4.53;2.30;;;0.10;99.90;;;;;;4999941;28;20273;-62
2024/01/15 09:32:42;;;;;;;5.28;1.92;;;0.20;99.90;;;;;;4999878;28;20056;-61
2024/01/15 09:35:10;;;;;;;3.22;2.10;;;0.20;99.90;;;;;;4996470;28;20053;-61
2024/01/15 09:37:37;;;;;;;3.55;1.27;;;0.30;99.90;;;;;;4999554;28;20065;-61
2024/01/15 09:40:16;;;;;;;2.90;1.58;;;0.30;99.90;;;;;;4995720;28;20116;-61
2024/01/15 09:42:44;;;;;;;2.30;1.30;;;0.40;99.90;;;;;;4993581;28;20103;-60
2024/01/15 09:45:11;;;;;;;4.53;1.60;;;0.50;99.90;;;;;;5013148;28;20049;-61
2024/01/15 09:47:38;;;;;;;4.03;0.90;;;0.70;99.90;;;;;;4998515;28;20050;-61
2024/01/15 09:50:10;;;;;;;2.60;1.15;;;0.60;99.90;;;;;;5009091;28;20053;-61
2024/01/15 09:52:38;;;;;;;3.97;1.45;;;0.60;99.90;;;;;;5019517;28;20176;-61
2024/01/15 09:55:05;;;;;;;4.20;1.88;;;0.70;99.90;;;;;;5002053;28;20111;-61
2024/01/15 09:57:32;;;;;;;7.18;2.40;;;0.70;99.90;;;;;;5004838;28;20073;-61
2024/01/15 10:00:01;;;;;;;6.50;1.40;;;0.80;99.90;;;;;;5001788;28;20050;-61
2024/01/15 10:02:27;;;;;;;3.55;0.90;;;0.90;99.90;;;;;;5001833;28;20045;-61
2024/01/15 10:04:54;;;;;;;7.95;1.25;;;0.90;99.90;;;;;;5004231;28;20131;-62
2024/01/15 10:07:21;;;;;;;6.25;1.65;;;0.90;99.90;;;;;;5009373;28;20049;-61
2024/01/15 10:09:48;;;;;;;12.10;1.73;;;1.00;99.90;;;;;;5004567;28;20128;-61
2024/01/15 10:12:15;;;;;;;6.35;1.30;;;1.20;99.90;;;;;;5000097;28;20505;-63
2024/01/15 10:14:43;;;;;;;3.72;1.33;;;1.10;99.90;;;;;;5002579;28;20060;-63
2024/01/15 10:17:17;;;;;;;7.70;1.35;;;1.20;99.90;;;;;;5002187;28;20505;-61
2024/01/15 10:19:46;;;;;;;4.85;0.98;;;1.20;99.90;;;;;;5016517;28;20457;-62
2024/01/15 10:22:17;;;;;;;2.90;1.17;;;1.30;99.90;;;;;;4999205;28;20042;-62
2024/01/15 10:24:46;;;;;;;4.13;0.98;;;1.40;99.90;;;;;;5001524;28;20061;-62
2024/01/15 10:27:15;;;;;;;9.35;1.23;;;1.40;99.90;;;;;;5002282;28;20656;-63
2024/01/15 10:29:42;;;;;;;3.20;1.48;;;1.50;99.90;;;;;;5009463;28;20050;-61
2024/01/15 10:32:09;;;;;;;6.35;1.42;;;1.50;99.90;;;;;;5002137;28;20189;-61
2024/01/15 10:34:40;;;;;;;2.97;1.05;;;1.60;99.90;;;;;;5025209;28;20125;-62
2024/01/15 10:37:08;;;;;;;3.88;1.80;;;1.60;99.90;;;;;;5000039;28;20054;-62
2024/01/15 10:39:36;;;;;;;3.58;1.30;;;1.80;99.90;;;;;;5006670;28;20042;-61
2024/01/15 10:42:03;;;;;;;4.78;1.02;;;1.60;99.90;;;;;;4999828;28;20042;-62
2024/01/15 10:44:34;;;;;;;6.80;1.23;;;1.70;99.90;;;;;;4989162;28;20056;-63
2024/01/15 10:47:01;;;;;;;4.15;0.95;;;1.70;99.90;;;;;;5001751;28;20060;-63
2024/01/15 10:49:29;;;;;;;2.55;1.00;;;1.70;99.90;;;;;;4998170;28;20049;-62
2024/01/15 10:52:02;;;;;;;7.05;1.30;;;1.70;99.90;;;;;;5015492;28;20503;-62
2024/01/15 10:54:29;;;;;;;12.95;2.08;;;1.70;99.90;;;;;;5014781;28;20045;-61
2024/01/15 10:56:57;;;;;;;16.70;1.35;;;1.80;99.90;;;;;;5000483;28;20401;-61
2024/01/15 10:59:23;;;;;;;11.95;1.52;;;1.90;99.90;;;;;;5003703;28;20473;-61
2024/01/15 11:01:53;;;;;;;5.35;1.42;;;1.90;99.90;;;;;;5004105;28;20464;-62
2024/01/15 11:04:22;;;;;;;2.75;0.93;;;1.90;99.90;;;;;;4993998;28;20050;-61
2024/01/15 11:06:55;;;;;;;4.03;1.40;;;2.00;99.90;;;;;;4991475;28;20129;-62
2024/01/15 11:09:24;;;;;;;2.65;0.98;;;2.00;99.90;;;;;;5001194;28;20045;-62
2024/01/15 11:11:54;;;;;;;6.90;0.90;;;2.20;99.90;;;;;;5005138;28;20053;-62
2024/01/15 11:14:35;;;;;;;5.78;1.73;;;2.00;99.90;;;;;;5003977;28;20104;-63
2024/01/15 11:17:02;;;;;;;1.77;0.70;;;2.10;99.90;;;;;;5007319;28;20052;-62
2024/01/15 11:19:40;;;;;;;7.35;1.00;;;2.10;99.90;;;;;;5000512;28;20049;-62
2024/01/15 11:22:08;;;;;;;5.88;1.67;;;2.10;99.90;;;;;;5011114;28;20062;-61
2024/01/15 11:24:36;;;;;;;5.63;0.88;;;2.20;99.90;;;;;;5003625;28;20046;-61
2024/01/15 11:27:03;;;;;;;9.80;1.73;;;2.20;99.90;;;;;;5007382;28;20670;-61
2024/01/15 11:29:35;;;;;;;8.30;2.05;;;2.20;99.90;;;;;;5023232;28;20509;-61
2024/01/15 11:32:06;;;;;;;29.30;1.67;;;2.20;99.90;;;;;;5009012;28;20100;-61
2024/01/15 11:35:02;;;;;;;5.82;2.28;;;2.30;99.90;;;;;;5003258;28;20046;-62
2024/01/15 11:37:50;;;;;;;15.82;2.08;;;2.30;99.90;;;;;;5004540;28;20130;-62
2024/01/15 11:40:39;;;;;;;8.15;2.00;;;2.40;99.90;;;;;;5007868;28;20483;-62
2024/01/15 11:43:09;;;;;;;17.05;1.90;;;2.40;99.90;;;;;;5006766;28;20077;-61
2024/01/15 11:45:36;;;;;;;2.28;1.05;;;2.40;99.90;;;;;;5004971;28;20100;-61
2024/01/15 11:48:18;;;;;;;5.75;1.13;;;2.40;99.90;;;;;;5014991;28;20046;-61
2024/01/15 11:50:50;;;;;;;8.32;4.38;;;2.40;99.90;;;;;;5003152;28;20472;-61
2024/01/15 11:53:34;;;;;;;7.10;1.73;;;2.40;99.90;;;;;;5015119;28;20042;-61
2024/01/15 11:56:02;;;;;;;7.45;1.33;;;2.50;99.90;;;;;;5027836;28;20056;-61
2024/01/15 11:58:29;;;;;;;12.45;1.42;;;2.50;99.90;;;;;;5019281;28;20524;-61
2024/01/15 12:00:56;;;;;;;7.35;1.25;;;2.50;99.90;;;;;;5001301;28;20046;-61
2024/01/15 12:03:23;;;;;;;3.92;1.10;;;2.50;99.90;;;;;;5005949;28;20045;-62
2024/01/15 12:05:52;;;;;;;7.40;2.00;;;2.50;99.90;;;;;;5000673;28;20513;-61
2024/01/15 12:08:23;;;;;;;13.20;1.65;;;2.50;99.90;;;;;;5012026;28;20516;-61
2024/01/15 12:10:50;;;;;;;9.43;1.50;;;2.60;99.90;;;;;;5022217;28;20049;-62
2024/01/15 12:13:18;;;;;;;8.32;2.00;;;2.60;99.90;;;;;;5006702;28;20510;-62
2024/01/15 12:15:45;;;;;;;9.20;1.50;;;2.60;99.90;;;;;;4997067;28;20426;-61
2024/01/15 12:18:17;;;;;;;6.07;1.58;;;2.70;99.90;;;;;;5031342;28;20050;-62
2024/01/15 12:20:46;;;;;;;7.57;1.35;;;2.70;99.90;;;;;;5000768;28;20054;-61
2024/01/15 12:23:14;;;;;;;7.88;1.50;;;2.70;99.90;;;;;;4997878;28;20644;-61
2024/01/15 12:25:41;;;;;;;16.27;1.98;;;2.70;99.90;;;;;;5003451;28;20841;-61
2024/01/15 12:28:08;;;;;;;5.68;1.30;;;2.70;99.90;;;;;;5007156;28;20057;-62
2024/01/15 12:30:36;;;;;;;6.57;1.48;;;3.10;99.90;;;;;;5004200;28;20623;-62
2024/01/15 12:33:04;;;;;;;11.15;2.05;;;2.80;99.90;;;;;;5004868;28;20054;-61
2024/01/15 12:35:32;;;;;;;6.82;1.85;;;2.80;99.90;;;;;;5017020;28;20046;-62
2024/01/15 12:38:02;;;;;;;2.03;1.48;;;2.80;99.90;;;;;;5005082;28;20046;-61
2024/01/15 12:40:29;;;;;;;11.20;2.17;;;2.90;99.90;;;;;;4999491;28;20049;-61
2024/01/15 12:42:56;;;;;;;7.80;1.10;;;2.90;99.90;;;;;;5002908;28;20050;-62
2024/01/15 12:45:23;;;;;;;9.40;1.20;;;2.90;99.90;;;;;;5004037;28;20042;-62
2024/01/15 12:47:51;;;;;;;7.47;4.00;;;2.90;99.90;;;;;;5003818;28;20049;-61
2024/01/15 12:50:18;;;;;;;10.77;1.45;;;2.90;99.90;;;;;;5002631;28;21329;-61
2024/01/15 12:52:47;;;;;;;23.83;2.28;;;2.90;99.90;;;;;;5001016;28;20056;-61
2024/01/15 12:55:14;;;;;;;3.83;1.08;;;3.00;99.90;;;;;;5006492;28;20109;-61